Flight Track Log - Related Links

Times and Time Zones

All times are in EST time to prevent confusion due to time zone crossing. See the DAL5298 flight status page for this flight to view local times or setup timezone preferences in your user account.


Time Position Orientation Groundspeed Altitude Reporting Facility
EST Latitude Longitude Course Direction KTS MPH feet Rate Location/Type
Fri 09:17:18 PM 40.7667 -73.8167 246° West 188 216 2,100  Level New York TRACON
Fri 09:18:12 PM 40.8000 -73.7500 57° Northeast 237 273 4,600 2,684 Climbing New York TRACON
Fri 09:19:12 PM 40.8500 -73.8000 323° Northwest 236 272 7,200 2,700 Climbing New York TRACON
Fri 09:20:12 PM 40.8833 -73.8833 298° West 248 285 10,000 2,214 Climbing New York TRACON
Fri 09:22:00 PM 40.8629 -74.6007 246° West  Level Estimated
Fri 09:22:00 PM 40.8828 -74.0508 270° West 291 335 13,400  Level New York Center
Fri 09:23:00 PM 40.8897 -74.1692 274° West 298 343 15,000 950 Climbing New York Center
Fri 09:24:00 PM 40.8931 -74.2736 272° West 286 329 15,300 950 Climbing New York Center
Fri 09:25:00 PM 40.8944 -74.3644 271° West 286 329 16,900 850 Climbing New York Center
Fri 09:26:00 PM 40.8931 -74.4769 269° West 286 329 17,000 50 Climbing New York Center
Fri 09:27:00 PM 40.8819 -74.5667 261° West 286 329 17,000  Level New York Center
Fri 09:28:00 PM 40.8656 -74.6839 260° West 293 337 17,000 250 Level New York Center
Fri 09:29:00 PM 40.8558 -74.7875 263° West 306 352 17,500 1,550 Climbing New York Center
Fri 09:30:00 PM 40.8392 -74.9072 260° West 313 360 20,100 2,250 Climbing New York Center
Fri 09:31:00 PM 40.8269 -75.0189 262° West 308 354 22,000 1,900 Climbing New York Center
Fri 09:32:00 PM 40.8144 -75.1306 262° West 308 354 23,900 1,700 Climbing New York Center
Fri 09:33:00 PM 40.8028 -75.2175 260° West 308 354 25,400 1,800 Climbing New York Center
Fri 09:34:00 PM 40.7858 -75.3369 259° West 313 360 27,500 1,850 Climbing New York Center
Fri 09:35:00 PM 40.7714 -75.4431 260° West 307 353 29,100 1,300 Climbing New York Center
Fri 09:36:00 PM 40.7564 -75.5514 260° West 302 348 30,100 850 Climbing New York Center
Fri 09:37:00 PM 40.7414 -75.6656 260° West 313 360 30,800 700 Climbing New York Center
Fri 09:38:00 PM 40.7275 -75.7961 262° West 324 373 31,500 700 Climbing New York Center
Fri 09:39:00 PM 40.7350 -75.9169 275° West 338 389 32,200 700 Climbing New York Center
Fri 09:40:00 PM 40.7517 -76.0553 279° West 368 423 32,900 700 Climbing New York Center
Fri 09:41:00 PM 40.7661 -76.1961 278° West 382 440 33,600 700 Climbing New York Center
Fri 09:42:00 PM 40.7828 -76.3344 279° West 393 452 34,300 700 Climbing New York Center
Fri 09:43:00 PM 40.7989 -76.4756 279° West 393 452 35,000 700 Climbing New York Center
Fri 09:44:00 PM 40.8147 -76.6197 278° West 393 452 35,700 500 Climbing New York Center
Fri 09:45:00 PM 40.8303 -76.7664 278° West 398 458 36,000 150 Climbing New York Center
Fri 09:46:00 PM 40.8478 -76.9133 279° West 398 458 36,000  Level New York Center
Fri 09:47:00 PM 40.8625 -77.0683 277° West 415 478 36,000  Level New York Center
Fri 09:48:00 PM 40.8794 -77.2181 279° West 420 483 36,000  Level New York Center
Fri 09:49:53 PM 40.9111 -77.5164 278° West 423 487 36,000  Level Cleveland Center
Fri 09:50:54 PM 40.9269 -77.6700 278° West 424 488 36,000  Level Cleveland Center
Fri 09:51:56 PM 40.9428 -77.8217 278° West 420 483 36,000  Level Cleveland Center
Fri 09:52:57 PM 40.9567 -77.9744 277° West 420 483 36,000  Level Cleveland Center
Fri 09:53:58 PM 40.9722 -78.1286 278° West 425 489 36,000  Level Cleveland Center
Fri 09:54:59 PM 40.9867 -78.2772 277° West 422 486 36,000  Level Cleveland Center
Fri 09:56:01 PM 41.0058 -78.4606 278° West 420 483 36,000  Level Cleveland Center
Fri 09:57:02 PM 41.0167 -78.6103 276° West 411 473 36,000  Level Cleveland Center
Fri 09:58:03 PM 41.0322 -78.7681 277° West 429 494 36,000  Level Cleveland Center
Fri 09:59:04 PM 41.0469 -78.9219 277° West 428 493 36,000  Level Cleveland Center
Fri 10:00:06 PM 41.0589 -79.0758 276° West 426 490 36,000  Level Cleveland Center
Fri 10:01:07 PM 41.0728 -79.2336 277° West 434 499 36,000  Level Cleveland Center
Fri 10:02:08 PM 41.0861 -79.3889 277° West 428 493 36,000  Level Cleveland Center
Fri 10:03:09 PM 41.1000 -79.5478 277° West 437 503 36,000  Level Cleveland Center
Fri 10:04:11 PM 41.1119 -79.7028 276° West 429 494 36,000  Level Cleveland Center
Fri 10:05:12 PM 41.1281 -79.8908 277° West 431 496 36,000  Level Cleveland Center
Fri 10:06:13 PM 41.1397 -80.0431 276° West 422 486 36,000  Level Cleveland Center
Fri 10:07:14 PM 41.1528 -80.2006 276° West 429 494 36,000  Level Cleveland Center
Fri 10:08:15 PM 41.1658 -80.3614 276° West 424 488 36,000  Level Cleveland Center
Fri 10:09:16 PM 41.1775 -80.5214 276° West 432 497 36,000  Level Cleveland Center
Fri 10:10:17 PM 41.1892 -80.6794 276° West 428 493 36,000  Level Cleveland Center
Fri 10:11:19 PM 41.2014 -80.8386 276° West 431 496 36,000  Level Cleveland Center
Fri 10:12:20 PM 41.2125 -80.9986 275° West 433 498 36,000  Level Cleveland Center
Fri 10:13:21 PM 41.2236 -81.1558 275° West 435 501 36,000  Level Cleveland Center
Fri 10:14:22 PM 41.2344 -81.3142 275° West 433 498 36,000  Level Cleveland Center
Fri 10:15:23 PM 41.2458 -81.4836 275° West 438 504 36,000  Level Cleveland Center
Fri 10:16:24 PM 41.2567 -81.6386 275° West 425 489 36,000  Level Cleveland Center
Fri 10:17:26 PM 41.2672 -81.7950 275° West 426 490 36,000  Level Cleveland Center
Fri 10:18:27 PM 41.2769 -81.9514 275° West 426 490 36,000  Level Cleveland Center
Fri 10:19:28 PM 41.2872 -82.1186 275° West 430 495 36,000  Level Cleveland Center
Fri 10:20:29 PM 41.2972 -82.2789 275° West 433 498 36,000  Level Cleveland Center
Fri 10:21:30 PM 41.3058 -82.4392 274° West 431 496 36,000  Level Cleveland Center
Fri 10:22:31 PM 41.3153 -82.6003 275° West 433 498 36,000  Level Cleveland Center
Fri 10:23:33 PM 41.3239 -82.7617 274° West 434 499 36,000  Level Cleveland Center
Fri 10:24:34 PM 41.3331 -82.9228 274° West 432 497 36,000  Level Cleveland Center
Fri 10:25:35 PM 41.3419 -83.0856 274° West 436 502 36,000  Level Cleveland Center
Fri 10:26:36 PM 41.3517 -83.2575 274° West 438 504 36,000  Level Cleveland Center
Fri 10:27:37 PM 41.3597 -83.4172 274° West 435 501 36,000  Level Cleveland Center
Fri 10:28:38 PM 41.3667 -83.5789 273° West 435 501 36,000  Level Cleveland Center
Fri 10:29:40 PM 41.3747 -83.7383 274° West 433 498 36,000  Level Cleveland Center
Fri 10:30:41 PM 41.3825 -83.8986 274° West 433 498 36,000  Level Cleveland Center
Fri 10:31:42 PM 41.3894 -84.0589 273° West 434 499 36,000  Level Cleveland Center
Fri 10:32:35 PM 41.3947 -84.2011 273° West 436 502 36,000  Level Chicago Center
Fri 10:33:36 PM 41.4014 -84.3625 273° West 437 503 36,000  Level Chicago Center
Fri 10:34:37 PM 41.4078 -84.5242 273° West 439 505 36,000  Level Chicago Center
Fri 10:35:38 PM 41.4158 -84.7197 273° West 441 507 36,000  Level Chicago Center
Fri 10:36:39 PM 41.4228 -84.8825 273° West 440 506 36,000  Level Chicago Center
Fri 10:37:40 PM 41.4281 -85.0458 273° West 441 507 36,000  Level Chicago Center
Fri 10:38:41 PM 41.4344 -85.2106 273° West 443 510 36,000  Level Chicago Center
Fri 10:39:43 PM 41.4406 -85.3758 273° West 442 509 36,000  Level Chicago Center
Fri 10:40:44 PM 41.4450 -85.5392 272° West 436 502 36,000  Level Chicago Center
Fri 10:41:45 PM 41.4497 -85.7019 272° West 435 501 36,000  Level Chicago Center
Fri 10:42:46 PM 41.4547 -85.8647 272° West 436 502 36,000  Level Chicago Center
Fri 10:43:47 PM 41.4578 -86.0278 271° West 439 505 36,000  Level Chicago Center
Fri 10:44:48 PM 41.4625 -86.1925 272° West 444 511 36,000  Level Chicago Center
Fri 10:45:49 PM 41.4667 -86.3556 272° West 442 509 36,000  Level Chicago Center
Fri 10:46:50 PM 41.4703 -86.5172 272° West 439 505 36,000  Level Chicago Center
Fri 10:47:51 PM 41.4747 -86.6800 272° West 440 506 36,000  Level Chicago Center
Fri 10:48:52 PM 41.4772 -86.8511 271° West 441 507 36,000  Level Chicago Center
Fri 10:49:53 PM 41.4806 -87.0147 272° West 443 510 36,000  Level Chicago Center
Fri 10:50:54 PM 41.4842 -87.1772 272° West 442 509 36,000  Level Chicago Center
Fri 10:51:55 PM 41.4864 -87.3400 271° West 442 509 36,000  Level Chicago Center
Fri 10:52:56 PM 41.4892 -87.5033 271° West 443 510 36,000 -148 Level Chicago Center
Fri 10:53:57 PM 41.4914 -87.6989 271° West 442 509 35,700 -639 Descending Chicago Center
Fri 10:54:58 PM 41.4928 -87.8639 271° West 448 516 34,700 -836 Descending Chicago Center
Fri 10:55:59 PM 41.4922 -88.0242 270° West 446 513 34,000 -344 Descending Chicago Center
Fri 10:57:00 PM 41.4947 -88.1797 271° West 431 496 34,000  Level Chicago Center
Fri 10:58:01 PM 41.4975 -88.3467 271° West 445 512 34,000  Level Chicago Center
Fri 10:59:02 PM 41.4989 -88.5161 271° West 456 525 34,000  Level Chicago Center
Fri 11:00:03 PM 41.4992 -88.7164 270° West 456 525 34,000  Level Chicago Center
Fri 11:01:04 PM 41.5003 -88.8775 271° West 443 510 34,000  Level Chicago Center
Fri 11:02:04 PM 41.5003 -89.0350 270° West 431 496 34,000  Level Chicago Center
Fri 11:03:05 PM 41.5011 -89.1942 270° West 425 489 34,000  Level Chicago Center
Fri 11:04:06 PM 41.5008 -89.3533 270° West 429 494 34,000  Level Chicago Center
Fri 11:05:07 PM 41.5006 -89.5131 270° West 432 497 34,000  Level Chicago Center
Fri 11:06:08 PM 41.5011 -89.6733 270° West 432 497 34,000  Level Chicago Center
Fri 11:07:09 PM 41.5006 -89.8314 270° West 429 494 34,000  Level Chicago Center
Fri 11:08:10 PM 41.4989 -89.9897 269° West 428 493 34,000  Level Chicago Center
Fri 11:09:11 PM 41.4978 -90.1483 270° West 429 494 34,000  Level Chicago Center
Fri 11:10:12 PM 41.4956 -90.3075 269° West 431 496 34,000  Level Chicago Center
Fri 11:11:12 PM 41.4933 -90.4683 269° West 434 499 34,000  Level Chicago Center
Fri 11:12:13 PM 41.4917 -90.6269 269° West 432 497 34,000  Level Chicago Center
Fri 11:13:14 PM 41.4889 -90.7864 269° West 432 497 34,000  Level Chicago Center
Fri 11:14:15 PM 41.4869 -90.9456 269° West 431 496 34,000  Level Chicago Center
Fri 11:15:16 PM 41.4839 -91.1356 269° West 430 495 34,000  Level Chicago Center
Fri 11:16:16 PM 41.4806 -91.2942 268° West 428 493 34,000  Level Chicago Center
Fri 11:17:17 PM 41.4781 -91.4417 269° West 430 495 34,000  Level Chicago Center
Fri 11:18:18 PM 41.4753 -91.5986 269° West 426 490 34,000  Level Chicago Center
Fri 11:19:19 PM 41.4717 -91.7550 268° West 423 487 34,000  Level Chicago Center
Fri 11:20:19 PM 41.4683 -91.9097 268° West 420 483 34,000  Level Chicago Center
Fri 11:21:20 PM 41.4642 -92.0661 268° West 421 484 34,000  Level Chicago Center
Fri 11:22:21 PM 41.4594 -92.2206 268° West 419 482 34,000  Level Chicago Center
Fri 11:23:22 PM 41.4564 -92.3756 269° West 418 481 34,000  Level Chicago Center
Fri 11:24:22 PM 41.4500 -92.5328 267° West 421 484 34,000  Level Chicago Center
Fri 11:25:23 PM 41.4444 -92.7197 268° West 424 488 34,000  Level Chicago Center
Fri 11:26:24 PM 41.4389 -92.8744 267° West 422 486 34,000  Level Chicago Center
Fri 11:27:25 PM 41.4344 -93.0306 268° West 424 488 34,000  Level Chicago Center
Fri 11:28:25 PM 41.4292 -93.1897 268° West 431 496 34,000  Level Chicago Center
Fri 11:29:26 PM 41.4233 -93.3483 267° West 433 498 34,000  Level Chicago Center
Fri 11:30:27 PM 41.4272 -93.5100 272° West 437 503 34,000  Level Chicago Center
Fri 11:31:28 PM 41.4569 -93.6575 285° West 420 483 34,000  Level Chicago Center
Fri 11:32:28 PM 41.4853 -93.8097 284° West 424 488 34,000 -595 Level Chicago Center
Fri 11:33:29 PM 41.5089 -93.9614 282° West 422 486 32,800 -1,475 Descending Chicago Center
Fri 11:34:30 PM 41.5350 -94.1131 283° West 422 486 31,000 -1,785 Descending Chicago Center
Fri 11:35:30 PM 41.5289 -94.2694 267° West 435 501 29,200 -1,785 Descending Chicago Center
Fri 11:36:31 PM 41.5089 -94.4306 261° West 444 511 27,400 -1,837 Descending Chicago Center
Fri 11:37:57 PM 41.4767 -94.6700 260° West 441 507 24,700 -1,837 Descending Minneapolis Center
Fri 11:38:58 PM 41.4567 -94.8256 260° West 430 495 22,900 -1,938 Descending Minneapolis Center
Fri 11:39:33 PM 41.4544 -94.9411 269° West 417 480 21,600 -1,770 Descending Minneapolis Center
Fri 11:39:59 PM 41.4353 -94.9778 235° Southwest 421 484 21,100 -1,869 Descending Minneapolis Center
Fri 11:40:34 PM 41.4317 -95.0889 268° West 403 464 19,700 -2,000 Descending Minneapolis Center
Fri 11:40:59 PM 41.4164 -95.1206 237° Southwest 399 459 19,100 -2,557 Descending Minneapolis Center
Fri 11:41:35 PM 41.4186 -95.2239 272° West 332 382 17,100 -2,557 Descending Minneapolis Center
Fri 11:42:00 PM 41.4075 -95.2428 232° Southwest 340 391 16,500 -2,600 Descending Minneapolis Center
Fri 11:42:35 PM 41.4061 -95.3450 269° West 320 368 14,500 -2,852 Descending Minneapolis Center
Fri 11:43:01 PM 41.3956 -95.3858 251° West 326 375 13,600 -1,967 Descending Minneapolis Center
Fri 11:43:36 PM 41.3950 -95.4550 269° West 302 348 12,500 -1,770 Descending Minneapolis Center
Fri 11:44:02 PM 41.3867 -95.4919 253° West 302 348 11,800 -1,770 Descending Minneapolis Center
Fri 11:44:37 PM 41.3875 -95.5558 271° West 275 316 10,700 -1,770 Descending Minneapolis Center
Fri 11:45:03 PM 41.3842 -95.5903 263° West 282 325 10,000 -1,674 Descending Minneapolis Center
Fri 11:46:03 PM 41.3928 -95.6811 277° West 264 304 8,300 -1,682 Descending Minneapolis Center
Fri 11:46:50 PM 41.4011 -95.7572 278° West 241 277 7,000 -1,574 Descending Minneapolis Center
Fri 11:47:04 PM 41.4019 -95.7678 276° West 250 288 6,700 -1,574 Descending Minneapolis Center
Fri 11:47:51 PM 41.4111 -95.8422 279° West 233 268 5,400 -1,475 Descending Minneapolis Center
Fri 11:48:05 PM 41.4133 -95.8531 285° West 243 280 5,200 -1,300 Descending Minneapolis Center
Fri 11:48:51 PM 41.4100 -95.9200 266° West 222 255 4,100 -1,279 Descending Minneapolis Center
Fri 11:49:06 PM 41.4025 -95.9242 203° Southwest 229 264 3,900 -1,433 Descending Minneapolis Center
Fri 11:49:58 PM 41.3600 -95.9564 210° Southwest 171 197 2,500 -1,500 Descending Minneapolis Center
Fri 11:50:06 PM 41.3583 -95.9483 105° East 199 229 2,400 -1,000 Descending Minneapolis Center
Fri 11:50:58 PM 41.3308 -95.9292 152° Southeast 109 125 1,500 -885 Descending Minneapolis Center
Fri 11:51:07 PM 41.3289 -95.9200 106° East 154 177 1,500 -429 Level Minneapolis Center
Fri 11:52:08 PM 41.3006 -95.8931 144° Southeast 133 153 1,000 -492 Descending Minneapolis Center

Login

Don't have an account? Register now (free) for customized features, flight alerts, and more!